Weather History for Menominee, MI

Change the Weather History Date:

Wednesday, March 20, 2013

  Actual Average Record
Temperature  
Mean Temperature 17 °F -  
Max Temperature 24 °F 43 °F 75 °F (2012)
Min Temperature 10 °F 25 °F 2 °F (1986)
Degree Days  
Heating Degree Days 48    
Moisture  
Dew Point 5 °F    
Average Humidity 56    
Maximum Humidity 68    
Minimum Humidity 43    
Precipitation  
Precipitation 0.00 in - - ()
Sea Level Pressure  
Sea Level Pressure 29.92 in    
Wind  
Wind Speed 8 mph (NW)    
Max Wind Speed 15 mph    
Max Gust Speed 23 mph    
Visibility 10 miles    
Events      
Averages and records for this station are not official NWS values.
T = Trace of Precipitation, MM = Missing Value Source: NWS Daily Summary

Daily Weather History Graph

Daily Weather History Graph

Search for Another Location

Airport:

Trip Planner

Search our weather history database for the weather conditions in past years. The results will help you decide how hot, cold, wet, or windy it might be!

Date:

Astronomy

Mar. 20, 2013 Rise Set
Actual Time 6:53 AM CDT 7:03 PM CDT
Civil Twilight 6:23 AM CDT 7:32 PM CDT
Nautical Twilight 5:49 AM CDT 8:07 PM CDT
Astronomical Twilight 5:14 AM CDT 8:42 PM CDT
Moon 12:23 PM CDT (3/20) 2:47 AM CDT (3/20)
Length of Visible Light 13h 08m
Length of Day
12h 10m
First Quarter, 59% of the Moon is Illuminated
Mar 20
First Quarter
Mar 27
Full
Apr 2
Last Quarter
Apr 10
New
Apr 18
First Quarter

Hourly Weather History & Observations

Time (CDT) Temp. Windchill Dew Point Humidity Pressure Visibility Wind Dir Wind Speed Gust Speed Precip Events Conditions
12:15 AM 21.2 °F 12.6 °F 3.2 °F 46% 29.89 in 10.0 mi WNW 6.9 mph - N/A   Clear
12:35 AM 21.2 °F 11.7 °F 3.2 °F 46% 29.89 in 10.0 mi WNW 8.1 mph - N/A   Clear
12:55 AM 19.4 °F 9.5 °F 3.2 °F 49% 29.89 in 10.0 mi WNW 8.1 mph - N/A   Clear
1:15 AM 19.4 °F 11.5 °F 3.2 °F 49% 29.89 in 10.0 mi West 5.8 mph - N/A   Clear
1:35 AM 19.4 °F 11.5 °F 3.2 °F 49% 29.89 in 10.0 mi WNW 5.8 mph - N/A   Clear
1:55 AM 19.4 °F 11.5 °F 3.2 °F 49% 29.90 in 10.0 mi WNW 5.8 mph - N/A   Clear
2:15 AM 17.6 °F 9.3 °F 3.2 °F 53% 29.90 in 10.0 mi WNW 5.8 mph - N/A   Clear
2:35 AM 17.6 °F 10.7 °F 3.2 °F 53% 29.90 in 10.0 mi West 4.6 mph - N/A   Clear
2:55 AM 17.6 °F 12.3 °F 3.2 °F 53% 29.90 in 10.0 mi West 3.5 mph - N/A   Clear
3:15 AM 15.8 °F 6.1 °F 3.2 °F 58% 29.90 in 10.0 mi West 6.9 mph - N/A   Clear
3:35 AM 15.8 °F 6.1 °F 3.2 °F 58% 29.90 in 10.0 mi West 6.9 mph - N/A   Clear
3:55 AM 15.8 °F 7.2 °F 3.2 °F 58% 29.90 in 10.0 mi West 5.8 mph - N/A   Clear
4:15 AM 15.8 °F 7.2 °F 3.2 °F 58% 29.90 in 10.0 mi West 5.8 mph - N/A   Clear
4:35 AM 14.0 °F 5.1 °F 1.4 °F 57% 29.90 in 10.0 mi West 5.8 mph - N/A   Clear
4:55 AM 14.0 °F 5.1 °F 3.2 °F 62% 29.89 in 10.0 mi West 5.8 mph - N/A   Clear
5:15 AM 14.0 °F 2.0 °F 3.2 °F 62% 29.90 in 10.0 mi WNW 9.2 mph - N/A   Clear
5:35 AM 14.0 °F 2.0 °F 1.4 °F 57% 29.90 in 10.0 mi West 9.2 mph 16.1 mph N/A   Clear
5:55 AM 12.2 °F -0.2 °F 3.2 °F 67% 29.90 in 10.0 mi West 9.2 mph - N/A   Clear
6:15 AM 12.2 °F -0.2 °F 1.4 °F 62% 29.91 in 10.0 mi West 9.2 mph - N/A   Clear
6:35 AM 12.2 °F 1.7 °F -0.4 °F 57% 29.91 in 10.0 mi West 6.9 mph - N/A   Clear
6:55 AM 12.2 °F -0.2 °F 1.4 °F 62% 29.92 in 10.0 mi WNW 9.2 mph - N/A   Clear
7:15 AM 10.4 °F -2.4 °F 1.4 °F 67% 29.92 in 10.0 mi WNW 9.2 mph - N/A   Clear
7:35 AM 10.4 °F -0.4 °F 1.4 °F 67% 29.92 in 10.0 mi West 6.9 mph - N/A   Clear
7:55 AM 12.2 °F -0.2 °F 1.4 °F 62% 29.92 in 10.0 mi West 9.2 mph - N/A   Clear
8:15 AM 12.2 °F -1.0 °F 1.4 °F 62% 29.93 in 10.0 mi WNW 10.4 mph 18.4 mph N/A   Clear
8:35 AM 12.2 °F 0.7 °F 1.4 °F 62% 29.93 in 10.0 mi WNW 8.1 mph 18.4 mph N/A   Clear
8:55 AM 12.2 °F -1.8 °F 1.4 °F 62% 29.92 in 10.0 mi WNW 11.5 mph 17.3 mph N/A   Clear
9:15 AM 14.0 °F 2.9 °F 1.4 °F 57% 29.92 in 10.0 mi NW 8.1 mph 16.1 mph N/A   Clear
9:35 AM 15.8 °F 2.7 °F 1.4 °F 53% 29.92 in 10.0 mi NW 11.5 mph - N/A   Clear
9:55 AM 15.8 °F 2.1 °F 1.4 °F 53% 29.92 in 10.0 mi NNW 12.7 mph 19.6 mph N/A   Clear
10:15 AM 15.8 °F 3.4 °F 3.2 °F 58% 29.92 in 10.0 mi WNW 10.4 mph 17.3 mph N/A   Scattered Clouds
10:55 AM 19.4 °F 8.6 °F 3.2 °F 49% 29.92 in 10.0 mi WNW 9.2 mph - N/A   Clear
11:15 AM 19.4 °F 5.5 °F 3.2 °F 49% 29.92 in 10.0 mi NNW 15.0 mph 18.4 mph N/A   Mostly Cloudy
11:35 AM 19.4 °F 9.5 °F 5.0 °F 54% 29.92 in 10.0 mi NNW 8.1 mph - N/A   Mostly Cloudy
11:55 AM 19.4 °F 5.5 °F 3.2 °F 49% 29.92 in 10.0 mi NNW 15.0 mph 23.0 mph N/A   Overcast
12:15 PM 19.4 °F 7.9 °F 3.2 °F 49% 29.92 in 10.0 mi NW 10.4 mph 21.9 mph N/A   Overcast
12:35 PM 21.2 °F 9.5 °F 3.2 °F 46% 29.92 in 10.0 mi WNW 11.5 mph 19.6 mph N/A   Overcast
12:55 PM 21.2 °F 10.1 °F 3.2 °F 46% 29.92 in 10.0 mi NNW 10.4 mph 17.3 mph N/A   Overcast
1:15 PM 21.2 °F 8.9 °F 3.2 °F 46% 29.92 in 10.0 mi NNW 12.7 mph 18.4 mph N/A   Overcast
1:35 PM 21.2 °F 10.1 °F 5.0 °F 50% 29.91 in 10.0 mi NW 10.4 mph 19.6 mph N/A   Overcast
1:55 PM 23.0 °F 13.9 °F 6.8 °F 50% 29.91 in 10.0 mi NNW 8.1 mph 18.4 mph N/A   Overcast
2:15 PM 23.0 °F 13.9 °F 3.2 °F 43% 29.91 in 10.0 mi NW 8.1 mph - N/A   Overcast
2:35 PM 23.0 °F 14.7 °F 6.8 °F 50% 29.90 in 10.0 mi NNW 6.9 mph 16.1 mph N/A   Overcast
2:55 PM 23.0 °F 11.7 °F 6.8 °F 50% 29.90 in 10.0 mi NNW 11.5 mph - N/A   Overcast
3:15 PM 23.0 °F 10.1 °F 8.6 °F 54% 29.90 in 10.0 mi NNW 15.0 mph 20.7 mph N/A   Overcast
3:35 PM 23.0 °F 13.1 °F 8.6 °F 54% 29.91 in 10.0 mi NW 9.2 mph 16.1 mph N/A   Overcast
3:55 PM 23.0 °F 12.4 °F 6.8 °F 50% 29.91 in 9.0 mi NW 10.4 mph 18.4 mph N/A   Overcast
4:15 PM 24.8 °F 16.9 °F 8.6 °F 50% 29.91 in 10.0 mi NW 6.9 mph - N/A   Overcast
4:35 PM 24.8 °F 14.6 °F 8.6 °F 50% 29.91 in 10.0 mi NNW 10.4 mph 19.6 mph N/A   Overcast
4:55 PM 24.8 °F 14.0 °F 10.4 °F 54% 29.91 in 10.0 mi NNW 11.5 mph 16.1 mph N/A   Overcast
5:15 PM 24.8 °F 16.1 °F 8.6 °F 50% 29.92 in 10.0 mi NNW 8.1 mph 17.3 mph N/A   Overcast
5:35 PM 24.8 °F 14.6 °F 8.6 °F 50% 29.92 in 10.0 mi NW 10.4 mph - N/A   Overcast
5:55 PM 23.0 °F 12.4 °F 8.6 °F 54% 29.93 in 10.0 mi NW 10.4 mph - N/A   Overcast
6:15 PM 23.0 °F 11.1 °F 8.6 °F 54% 29.93 in 9.0 mi NNW 12.7 mph - N/A   Overcast
6:35 PM 21.2 °F 11.7 °F 10.4 °F 63% 29.94 in 7.0 mi NW 8.1 mph 16.1 mph N/A   Mostly Cloudy
6:55 PM 21.2 °F 12.6 °F 12.2 °F 68% 29.95 in 10.0 mi NNW 6.9 mph - N/A   Overcast
7:15 PM 21.2 °F 9.5 °F 10.4 °F 63% 29.95 in 10.0 mi NNW 11.5 mph 16.1 mph N/A   Overcast
7:35 PM 21.2 °F 13.6 °F 10.4 °F 63% 29.96 in 9.0 mi NNW 5.8 mph - N/A   Overcast
7:55 PM 21.2 °F 9.5 °F 10.4 °F 63% 29.97 in 10.0 mi North 11.5 mph - N/A   Overcast
8:15 PM 21.2 °F 9.5 °F 10.4 °F 63% 29.97 in 10.0 mi NNW 11.5 mph 18.4 mph N/A   Overcast
8:35 PM 21.2 °F 10.9 °F 10.4 °F 63% 29.98 in 9.0 mi NNW 9.2 mph 18.4 mph N/A   Mostly Cloudy
8:55 PM 21.2 °F 10.9 °F 8.6 °F 58% 29.98 in 10.0 mi NNW 9.2 mph 18.4 mph N/A   Overcast
9:15 PM 21.2 °F 8.9 °F 8.6 °F 58% 29.98 in 10.0 mi North 12.7 mph - N/A   Overcast
9:35 PM 19.4 °F 6.6 °F 10.4 °F 68% 29.99 in 10.0 mi North 12.7 mph 18.4 mph N/A   Mostly Cloudy
9:55 PM 19.4 °F 7.9 °F 8.6 °F 63% 29.98 in 10.0 mi NNW 10.4 mph - N/A   Overcast
10:15 PM 19.4 °F 10.4 °F 10.4 °F 68% 29.97 in 10.0 mi NW 6.9 mph - N/A   Overcast
10:35 PM 19.4 °F 10.4 °F 10.4 °F 68% 29.97 in 10.0 mi WNW 6.9 mph - N/A   Overcast
10:55 PM 19.4 °F 11.5 °F 10.4 °F 68% 29.97 in 10.0 mi WNW 5.8 mph - N/A   Overcast
11:15 PM 19.4 °F 10.4 °F 8.6 °F 63% 29.97 in 10.0 mi NW 6.9 mph - N/A   Overcast
11:35 PM 19.4 °F 10.4 °F 8.6 °F 63% 29.96 in 10.0 mi WNW 6.9 mph - N/A   Overcast
11:55 PM 19.4 °F 11.5 °F 6.8 °F 58% 29.97 in 10.0 mi NW 5.8 mph - N/A   Overcast